.
WxDataArchive / Data Records for 2012-05-21
2012-05-20 May 2012 2012-05-22

Data Records for Monday, 21 May 2012

Time	Temp	Chill	HIndex	Humid	Dewpt	 Wind 	HiWind	WindDir	Rain 	Barom 
-----	----	-----	------	-----	-----	------	------	-------	-----	----- 
00:00	75.4	75.4	77.7	44	52.0	0	0	---	0.00	29.968 
00:05	75.1	75.1	77.6	45	52.3	0	2	202	0.00	29.968 
00:10	75.1	75.1	77.6	45	52.3	0	2	202	0.00	29.968 
00:15	74.9	74.9	74.9	45	52.1	0	2	202	0.00	29.969 
00:20	74.9	74.9	74.9	45	52.1	0	1	202	0.00	29.969 
00:25	74.7	74.7	74.7	45	51.9	0	1	202	0.00	29.969 
00:30	74.7	74.7	74.7	45	51.9	0	0	---	0.00	29.973 
00:35	74.6	74.6	74.6	46	52.4	0	2	112	0.00	29.973 
00:40	74.4	74.4	74.4	46	52.3	0	1	112	0.00	29.973 
00:45	74.2	74.2	74.2	46	52.1	0	2	112	0.00	29.974 
00:50	74.0	74.0	74.0	46	51.9	0	1	112	0.00	29.974 
00:55	74.0	74.0	74.0	46	51.9	0	3	292	0.00	29.974 
01:00	74.2	74.2	74.2	46	52.1	0	2	292	0.00	29.972 
01:05	74.2	74.2	74.2	46	52.1	0	1	292	0.00	29.972 
01:10	74.2	74.2	74.2	46	52.1	0	3	292	0.00	29.972 
01:15	74.0	74.0	74.0	46	51.9	0	3	270	0.00	29.979 
01:20	74.2	74.2	74.2	46	52.1	0	2	270	0.00	29.979 
01:25	74.2	74.2	74.2	47	52.7	1	4	270	0.00	29.979 
01:30	74.6	74.6	74.6	49	54.2	3	7	270	0.00	29.999 
01:35	74.4	74.4	74.4	52	55.6	4	7	292	0.00	29.999 
01:40	73.5	73.5	73.5	54	55.8	3	7	292	0.00	29.999 
01:45	72.7	72.7	72.7	56	56.1	3	6	292	0.00	30.005 
01:50	72.0	72.0	72.0	58	56.4	2	6	270	0.00	30.005 
01:55	71.5	71.5	71.5	59	56.4	1	3	292	0.00	30.005 
02:00	71.1	71.1	71.1	60	56.5	1	4	270	0.00	30.002 
02:05	70.6	70.6	70.6	62	56.9	1	4	270	0.00	30.002 
02:10	70.3	70.3	70.3	62	56.7	1	4	248	0.00	30.002 
02:15	69.9	69.9	69.9	63	56.7	1	3	270	0.00	30.001 
02:20	69.8	69.8	69.8	63	56.6	1	2	270	0.00	30.001 
02:25	69.6	69.6	69.6	64	56.9	1	4	270	0.00	30.001 
02:30	69.4	69.4	69.4	64	56.7	1	3	270	0.00	29.995 
02:35	69.3	69.3	69.3	64	56.6	1	3	270	0.00	29.995 
02:40	69.1	69.1	69.1	65	56.8	0	1	270	0.00	29.995 
02:45	68.9	68.9	68.9	65	56.6	1	2	270	0.00	29.990 
02:50	68.8	68.8	68.8	65	56.5	1	3	270	0.00	29.990 
02:55	68.6	68.6	68.6	65	56.4	1	3	270	0.00	29.990 
03:00	68.6	68.6	68.6	65	56.4	0	2	270	0.00	29.993 
03:05	68.4	68.4	68.4	66	56.6	0	1	270	0.00	29.993 
03:10	68.3	68.3	68.3	66	56.5	0	1	270	0.00	29.993 
03:15	68.1	68.1	68.1	66	56.3	0	0	---	0.00	29.994 
03:20	67.9	67.9	67.9	67	56.5	0	1	270	0.00	29.994 
03:25	67.8	67.8	67.8	67	56.4	0	1	270	0.00	29.994 
03:30	67.6	67.6	67.6	68	56.7	0	1	270	0.00	29.985 
03:35	67.3	67.3	67.3	69	56.8	0	0	---	0.00	29.985 
03:40	67.1	67.1	67.1	69	56.6	0	1	270	0.00	29.985 
03:45	66.9	66.9	66.9	70	56.8	0	0	---	0.00	29.977 
03:50	66.8	66.8	66.8	70	56.7	0	1	270	0.00	29.977 
03:55	66.6	66.6	66.6	71	56.9	0	0	---	0.00	29.977 
04:00	66.4	66.4	66.4	71	56.7	0	0	---	0.00	29.980 
04:05	66.3	66.3	66.3	71	56.6	0	0	---	0.00	29.980 
04:10	66.1	66.1	66.1	71	56.4	0	0	---	0.00	29.980 
04:15	66.0	66.0	66.0	72	56.7	0	0	---	0.00	29.982 
04:20	65.8	65.8	65.8	73	56.9	0	0	---	0.00	29.982 
04:25	65.5	65.5	65.5	74	57.0	0	0	---	0.00	29.982 
04:30	65.3	65.3	65.3	74	56.8	0	0	---	0.00	29.983 
04:35	65.3	65.3	65.3	75	57.2	0	0	---	0.00	29.983 
04:40	65.3	65.3	65.3	75	57.2	0	0	---	0.00	29.983 
04:45	65.2	65.2	65.2	75	57.1	0	0	---	0.00	29.981 
04:50	65.2	65.2	65.2	76	57.4	0	0	---	0.00	29.981 
04:55	65.2	65.2	65.2	76	57.4	0	0	---	0.00	29.981 
05:00	65.2	65.2	65.2	76	57.4	0	0	---	0.00	29.976 
05:05	65.0	65.0	65.0	76	57.2	0	0	---	0.00	29.976 
05:10	64.8	64.8	64.8	77	57.4	0	0	---	0.00	29.976 
05:15	64.8	64.8	64.8	77	57.4	0	0	---	0.00	29.975 
05:20	64.7	64.7	64.7	77	57.3	0	0	---	0.00	29.975 
05:25	64.7	64.7	64.7	77	57.3	0	0	---	0.00	29.975 
05:30	64.5	64.5	64.5	78	57.5	0	0	---	0.00	29.970 
05:35	64.2	64.2	64.2	78	57.2	0	0	---	0.00	29.970 
05:40	63.9	63.9	63.9	79	57.3	0	0	---	0.00	29.970 
05:45	63.7	63.7	63.7	80	57.4	0	0	---	0.00	29.960 
05:50	63.4	63.4	63.4	80	57.1	0	0	---	0.00	29.960 
05:55	63.2	63.2	63.2	80	56.9	0	0	---	0.00	29.960 
06:00	62.9	62.9	62.9	81	57.0	0	0	---	0.00	29.963 
06:05	62.7	62.7	62.7	81	56.8	0	0	---	0.00	29.963 
06:10	62.6	62.6	62.6	81	56.7	0	0	---	0.00	29.963 
06:15	62.3	62.3	62.3	82	56.7	0	0	---	0.00	29.964 
06:20	62.1	62.1	62.1	83	56.9	0	0	---	0.00	29.964 
06:25	61.8	61.8	61.8	83	56.6	0	0	---	0.00	29.964 
06:30	61.6	61.6	61.6	83	56.4	0	0	---	0.00	29.967 
06:35	61.5	61.5	61.5	84	56.6	0	0	---	0.00	29.967 
06:40	61.3	61.3	61.3	84	56.4	0	0	---	0.00	29.967 
06:45	61.2	61.2	61.2	84	56.3	0	0	---	0.00	29.968 
06:50	61.2	61.2	61.2	85	56.6	0	0	---	0.00	29.968 
06:55	61.0	61.0	61.0	85	56.5	0	0	---	0.00	29.968 
07:00	61.0	61.0	61.0	86	56.8	0	0	---	0.00	29.973 
07:05	60.9	60.9	60.9	86	56.7	0	0	---	0.00	29.973 
07:10	61.0	61.0	61.0	86	56.8	0	0	---	0.00	29.973 
07:15	61.0	61.0	61.0	87	57.1	0	0	---	0.00	29.974 
07:20	61.3	61.3	61.3	87	57.4	0	0	---	0.00	29.974 
07:25	61.8	61.8	61.8	86	57.6	0	0	---	0.00	29.974 
07:30	62.4	62.4	62.4	85	57.8	0	0	---	0.00	29.969 
07:35	63.1	63.1	63.1	84	58.2	0	0	---	0.00	29.969 
07:40	63.5	63.5	63.5	84	58.6	0	0	---	0.00	29.969 
07:45	64.0	64.0	64.0	83	58.7	0	0	---	0.00	29.973 
07:50	64.3	64.3	64.3	82	58.7	0	0	---	0.00	29.973 
07:55	64.8	64.8	64.8	81	58.8	0	1	270	0.00	29.973 
08:00	65.2	65.2	65.2	79	58.5	0	0	---	0.00	29.977 
08:05	65.6	65.6	65.6	78	58.5	0	1	270	0.00	29.977 
08:10	66.0	66.0	66.0	77	58.6	0	1	270	0.00	29.977 
08:15	66.4	66.4	66.4	76	58.6	0	1	270	0.00	29.983 
08:20	66.8	66.8	66.8	76	59.0	0	2	270	0.00	29.983 
08:25	66.9	66.9	66.9	74	58.3	1	3	270	0.00	29.983 
08:30	67.3	67.3	67.3	75	59.1	1	2	270	0.00	29.993 
08:35	67.6	67.6	67.6	74	59.0	1	3	270	0.00	29.993 
08:40	67.9	67.9	67.9	73	58.9	1	4	270	0.00	29.993 
08:45	68.1	68.1	68.1	73	59.1	1	4	270	0.00	29.995 
08:50	68.1	68.1	68.1	73	59.1	2	6	270	0.00	29.995 
08:55	68.3	68.3	68.3	73	59.3	1	4	270	0.00	29.995 
09:00	68.4	68.4	68.4	73	59.4	1	4	292	0.00	29.998 
09:05	68.8	68.8	68.8	73	59.8	0	2	292	0.00	29.998 
09:10	68.9	68.9	68.9	73	59.9	1	3	292	0.00	29.998 
09:15	69.1	69.1	69.1	73	60.1	2	4	292	0.00	29.997 
09:20	68.9	68.9	68.9	73	59.9	2	4	292	0.00	29.997 
09:25	68.6	68.6	68.6	74	60.0	2	4	292	0.00	29.997 
09:30	68.9	68.9	68.9	74	60.3	2	5	338	0.00	29.998 
09:35	69.1	69.1	69.1	73	60.1	2	4	270	0.00	29.998 
09:40	69.1	69.1	69.1	73	60.1	1	3	270	0.00	29.998 
09:45	69.1	69.1	69.1	73	60.1	1	3	270	0.00	30.004 
09:50	69.4	69.4	69.4	73	60.4	1	6	270	0.00	30.004 
09:55	69.6	69.6	69.6	72	60.2	1	4	270	0.00	30.004 
10:00	69.6	69.6	69.6	71	59.8	1	4	270	0.00	30.007 
10:05	69.6	69.6	69.6	72	60.2	1	4	270	0.00	30.007 
10:10	69.4	69.4	69.4	72	60.0	1	3	270	0.00	30.007 
10:15	69.4	69.4	69.4	73	60.4	1	3	270	0.00	30.011 
10:20	69.1	69.1	69.1	73	60.1	1	3	315	0.00	30.011 
10:25	69.1	69.1	69.1	73	60.1	1	3	292	0.00	30.011 
10:30	69.1	69.1	69.1	72	59.7	1	3	292	0.00	30.012 
10:35	69.1	69.1	69.1	72	59.7	1	3	292	0.00	30.012 
10:40	69.1	69.1	69.1	73	60.1	1	3	315	0.00	30.012 
10:45	68.8	68.8	68.8	74	60.2	2	5	270	0.00	30.013 
10:50	68.1	68.1	68.1	76	60.2	2	4	270	0.00	30.013 
10:55	67.4	67.4	67.4	77	59.9	1	4	292	0.00	30.013 
11:00	66.8	66.8	66.8	78	59.7	1	4	270	0.00	30.017 
11:05	66.3	66.3	66.3	79	59.6	2	6	270	0.00	30.017 
11:10	66.0	66.0	66.0	80	59.6	2	4	270	0.00	30.017 
11:15	66.0	66.0	66.0	80	59.6	2	5	270	0.00	30.023 
11:20	66.0	66.0	66.0	80	59.6	1	4	315	0.00	30.023 
11:25	66.0	66.0	66.0	80	59.6	2	5	270	0.00	30.023 
11:30	66.0	66.0	66.0	79	59.3	2	5	270	0.00	30.028 
11:35	65.8	65.8	65.8	79	59.1	2	4	292	0.00	30.028 
11:40	65.5	65.5	65.5	79	58.8	2	5	292	0.00	30.028 
11:45	65.5	65.5	65.5	79	58.8	1	3	292	0.00	30.032 
11:50	65.6	65.6	65.6	79	58.9	1	3	292	0.00	30.032 
11:55	65.8	65.8	65.8	78	58.7	1	3	292	0.00	30.032 
12:00	66.0	66.0	66.0	77	58.6	1	4	292	0.00	30.029 
12:05	66.1	66.1	66.1	77	58.7	1	3	292	0.00	30.029 
12:10	66.3	66.3	66.3	76	58.5	1	2	292	0.00	30.029 
12:15	66.4	66.4	66.4	75	58.2	1	3	270	0.00	30.028 
12:20	66.6	66.6	66.6	75	58.4	1	4	270	0.00	30.028 
12:25	66.9	66.9	66.9	74	58.3	1	4	270	0.00	30.028 
12:30	67.1	67.1	67.1	73	58.1	2	4	270	0.00	30.031 
12:35	67.1	67.1	67.1	72	57.8	2	4	292	0.00	30.031 
12:40	67.4	67.4	67.4	72	58.1	2	5	292	0.00	30.031 
12:45	67.6	67.6	67.6	70	57.5	1	4	270	0.00	30.025 
12:50	67.8	67.8	67.8	70	57.6	1	3	338	0.00	30.025 
12:55	67.8	67.8	67.8	71	58.0	1	3	338	0.00	30.025 
13:00	68.3	68.3	68.3	69	57.7	2	4	315	0.00	30.020 
13:05	68.6	68.6	68.6	68	57.6	2	7	270	0.00	30.020 
13:10	68.9	68.9	68.9	68	57.9	2	4	270	0.00	30.020 
13:15	69.4	69.4	69.4	67	58.0	2	4	292	0.00	30.018 
13:20	69.9	69.9	69.9	66	58.0	1	3	292	0.00	30.018 
13:25	69.8	69.8	69.8	66	57.9	1	4	292	0.00	30.018 
13:30	69.3	69.3	69.3	67	57.9	1	3	270	0.00	30.017 
13:35	69.1	69.1	69.1	65	56.8	3	9	270	0.00	30.017 
13:40	68.6	68.6	68.6	66	56.8	2	5	292	0.00	30.017 
13:45	68.6	68.6	68.6	67	57.2	2	4	270	0.00	30.016 
13:50	69.1	69.1	69.1	66	57.3	2	4	292	0.00	30.016 
13:55	69.6	69.6	69.6	65	57.3	2	7	0	0.00	30.016 
14:00	69.8	69.8	69.8	63	56.6	3	5	315	0.00	30.016 
14:05	69.4	69.4	69.4	64	56.7	2	5	292	0.00	30.016 
14:10	69.8	69.8	69.8	63	56.6	2	5	270	0.00	30.016 
14:15	70.1	70.1	70.1	64	57.3	2	6	270	0.00	30.012 
14:20	70.3	70.3	70.3	61	56.2	2	5	315	0.00	30.012 
14:25	69.6	69.6	69.6	62	56.0	3	7	315	0.00	30.012 
14:30	69.4	69.4	69.4	62	55.8	2	4	270	0.00	30.011 
14:35	69.4	69.4	69.4	62	55.8	3	4	292	0.00	30.011 
14:40	69.6	69.6	69.6	62	56.0	2	4	292	0.00	30.011 
14:45	69.1	69.1	69.1	61	55.1	3	6	270	0.00	30.012 
14:50	68.9	68.9	68.9	62	55.3	3	5	270	0.00	30.012 
14:55	68.9	68.9	68.9	62	55.3	1	4	292	0.00	30.012 
15:00	68.6	68.6	68.6	62	55.0	2	6	315	0.00	30.010 
15:05	68.4	68.4	68.4	63	55.3	2	4	270	0.00	30.010 
15:10	68.8	68.8	68.8	62	55.2	2	5	292	0.00	30.010 
15:15	68.9	68.9	68.9	62	55.3	1	3	338	0.00	30.008 
15:20	69.1	69.1	69.1	63	56.0	2	5	0	0.00	30.008 
15:25	69.1	69.1	69.1	61	55.1	2	3	270	0.00	30.008 
15:30	69.1	69.1	69.1	62	55.5	1	5	270	0.00	30.008 
15:35	69.1	69.1	69.1	62	55.5	1	5	315	0.00	30.008 
15:40	69.1	69.1	69.1	62	55.5	2	6	270	0.00	30.008 
15:45	69.3	69.3	69.3	60	54.8	3	5	270	0.00	30.006 
15:50	69.6	69.6	69.6	62	56.0	3	7	292	0.00	30.006 
15:55	69.8	69.8	69.8	59	54.8	3	6	270	0.00	30.006 
16:00	69.9	69.9	69.9	59	54.9	2	5	248	0.00	29.999 
16:05	70.3	70.3	70.3	58	54.8	3	6	292	0.00	29.999 
16:10	69.9	69.9	69.9	58	54.4	3	6	292	0.00	29.999 
16:15	69.6	69.6	69.6	58	54.2	2	5	292	0.00	29.997 
16:20	69.6	69.6	69.6	59	54.6	2	5	292	0.00	29.997 
16:25	69.9	69.9	69.9	59	54.9	1	4	315	0.00	29.997 
16:30	69.9	69.9	69.9	58	54.4	3	7	315	0.00	29.993 
16:35	69.6	69.6	69.6	59	54.6	1	4	315	0.00	29.993 
16:40	69.6	69.6	69.6	58	54.2	2	4	270	0.00	29.993 
16:45	69.4	69.4	69.4	60	54.9	1	4	315	0.00	29.990 
16:50	69.3	69.3	69.3	58	53.9	2	7	270	0.00	29.990 
16:55	68.9	68.9	68.9	60	54.4	2	5	270	0.00	29.990 
17:00	68.9	68.9	68.9	60	54.4	1	4	338	0.00	29.985 
17:05	69.1	69.1	69.1	60	54.6	1	4	292	0.00	29.985 
17:10	69.3	69.3	69.3	59	54.3	2	6	315	0.00	29.985 
17:15	69.6	69.6	69.6	59	54.6	1	3	292	0.00	29.977 
17:20	69.6	69.6	69.6	58	54.2	2	5	315	0.00	29.977 
17:25	69.4	69.4	69.4	58	54.0	1	4	45	0.00	29.977 
17:30	69.1	69.1	69.1	57	53.2	2	5	292	0.00	29.969 
17:35	69.1	69.1	69.1	58	53.7	2	5	315	0.00	29.969 
17:40	69.1	69.1	69.1	58	53.7	2	5	315	0.00	29.969 
17:45	69.3	69.3	69.3	58	53.9	2	4	315	0.00	29.970 
17:50	69.4	69.4	69.4	57	53.5	1	4	292	0.00	29.970 
17:55	69.9	69.9	69.9	56	53.5	1	5	315	0.00	29.970 
18:00	70.3	70.3	70.3	54	52.9	2	5	315	0.00	29.970 
18:05	70.3	70.3	70.3	53	52.3	2	5	315	0.00	29.970 
18:10	69.8	69.8	69.8	54	52.4	2	5	315	0.00	29.970 
18:15	69.8	69.8	69.8	54	52.4	3	6	315	0.00	29.977 
18:20	69.4	69.4	69.4	54	52.0	3	6	270	0.00	29.977 
18:25	69.4	69.4	69.4	54	52.0	2	5	270	0.00	29.977 
18:30	69.3	69.3	69.3	54	51.9	2	5	315	0.00	29.977 
18:35	68.9	68.9	68.9	55	52.1	2	4	315	0.00	29.977 
18:40	68.8	68.8	68.8	55	52.0	3	6	292	0.00	29.977 
18:45	68.6	68.6	68.6	56	52.3	2	7	270	0.00	29.975 
18:50	68.6	68.6	68.6	56	52.3	2	4	270	0.00	29.975 
18:55	68.4	68.4	68.4	55	51.6	2	5	270	0.00	29.975 
19:00	68.3	68.3	68.3	56	52.0	2	6	292	0.00	29.979 
19:05	68.3	68.3	68.3	58	52.9	1	3	292	0.00	29.979 
19:10	68.1	68.1	68.1	58	52.8	1	3	292	0.00	29.979 
19:15	68.1	68.1	68.1	58	52.8	2	5	270	0.00	29.971 
19:20	67.8	67.8	67.8	57	52.0	2	6	270	0.00	29.971 
19:25	67.6	67.6	67.6	58	52.3	1	4	292	0.00	29.971 
19:30	67.4	67.4	67.4	58	52.1	1	5	292	0.00	29.975 
19:35	67.3	67.3	67.3	58	52.0	1	4	292	0.00	29.975 
19:40	67.1	67.1	67.1	58	51.8	1	3	292	0.00	29.975 
19:45	66.9	66.9	66.9	58	51.6	2	5	292	0.00	29.980 
19:50	66.8	66.8	66.8	58	51.5	1	3	292	0.00	29.980 
19:55	66.6	66.6	66.6	59	51.8	1	2	292	0.00	29.980 
20:00	66.4	66.4	66.4	59	51.6	0	2	292	0.00	29.986 
20:05	66.1	66.1	66.1	59	51.3	0	2	292	0.00	29.986 
20:10	65.8	65.8	65.8	60	51.5	1	4	292	0.00	29.986 
20:15	65.5	65.5	65.5	61	51.7	2	4	292	0.00	29.988 
20:20	65.0	65.0	65.0	62	51.7	1	3	292	0.00	29.988 
20:25	64.7	64.7	64.7	62	51.4	0	2	338	0.00	29.988 
20:30	64.2	64.2	64.2	63	51.3	1	5	338	0.00	29.994 
20:35	63.9	63.9	63.9	64	51.5	1	3	270	0.00	29.994 
20:40	63.5	63.5	63.5	65	51.5	1	4	270	0.00	29.994 
20:45	63.1	63.1	63.1	65	51.1	1	3	292	0.00	29.998 
20:50	62.7	62.7	62.7	66	51.2	1	3	292	0.00	29.998 
20:55	62.4	62.4	62.4	67	51.3	0	2	292	0.00	29.998 
21:00	62.1	62.1	62.1	68	51.4	1	4	292	0.00	29.999 
21:05	62.0	62.0	62.0	68	51.3	0	2	292	0.00	29.999 
21:10	61.8	61.8	61.8	69	51.5	1	4	315	0.00	29.999 
21:15	61.5	61.5	61.5	69	51.2	1	3	315	0.00	30.002 
21:20	61.2	61.2	61.2	69	50.9	1	5	315	0.00	30.002 
21:25	61.0	61.0	61.0	69	50.8	0	2	270	0.00	30.002 
21:30	60.7	60.7	60.7	70	50.9	1	4	270	0.00	30.009 
21:35	60.5	60.5	60.5	70	50.7	0	3	270	0.00	30.009 
21:40	60.2	60.2	60.2	71	50.8	0	3	270	0.00	30.009 
21:45	59.9	59.9	59.9	70	50.1	1	4	270	0.00	30.009 
21:50	59.5	59.5	59.5	71	50.1	0	2	270	0.00	30.009 
21:55	59.2	59.2	59.2	71	49.8	0	3	292	0.00	30.009 
22:00	58.9	58.9	58.9	72	49.9	1	3	292	0.00	30.013 
22:05	58.7	58.7	58.7	72	49.7	0	3	292	0.00	30.013 
22:10	58.4	58.4	58.4	73	49.8	1	4	270	0.00	30.013 
22:15	58.3	58.3	58.3	73	49.7	0	2	270	0.00	30.016 
22:20	58.0	58.0	58.0	74	49.8	0	3	270	0.00	30.016 
22:25	57.8	57.8	57.8	74	49.6	0	1	270	0.00	30.016 
22:30	57.6	57.6	57.6	75	49.7	0	2	270	0.00	30.016 
22:35	57.5	57.5	57.5	75	49.6	0	1	270	0.00	30.016 
22:40	57.3	57.3	57.3	76	49.8	0	1	270	0.00	30.016 
22:45	57.3	57.3	57.3	76	49.8	0	3	270	0.00	30.018 
22:50	57.2	57.2	57.2	77	50.1	0	2	270	0.00	30.018 
22:55	57.2	57.2	57.2	77	50.1	0	1	270	0.00	30.018 
23:00	57.0	57.0	57.0	77	49.9	0	1	270	0.00	30.018 
23:05	57.0	57.0	57.0	77	49.9	0	1	270	0.00	30.018 
23:10	56.9	56.9	56.9	78	50.1	0	1	270	0.00	30.018 
23:15	56.9	56.9	56.9	78	50.1	0	1	270	0.00	30.019 
23:20	56.7	56.7	56.7	78	49.9	0	1	270	0.00	30.019 
23:25	56.6	56.6	56.6	79	50.2	0	0	---	0.00	30.019 
23:30	56.5	56.5	56.5	79	50.1	0	1	270	0.00	30.020 
23:35	56.3	56.3	56.3	79	49.9	0	0	---	0.00	30.020 
23:40	56.2	56.2	56.2	79	49.8	0	0	---	0.00	30.020 
23:45	56.0	56.0	56.0	80	49.9	0	0	---	0.00	30.020 
23:50	56.0	56.0	56.0	80	49.9	0	0	---	0.00	30.020 
23:55	55.9	55.9	55.9	81	50.2	0	0	---	0.00	30.020 

CoCoRaHS
IN-AL-39
A2 Web Hosting
Creative Commons License
GoDaddy
search engine by freefind advanced

loaded 2018-11-17 22:26:01 • last modified 2010-11-18 10:43:29
Privacy PolicyDisclaimer
• wx.awcolley.com is powered by PmWiki v.2002016 •
• all content (unless otherwise noted) © 2018 A W Colley